createdAt,value
2023-03-29T00:03:19.049Z,2.38
2023-03-29T00:08:22.003Z,1.85
2023-03-29T00:13:23.705Z,2.05
2023-03-29T00:18:25.445Z,2.60
2023-03-29T00:23:27.511Z,2.05
2023-03-29T00:28:29.385Z,2.17
2023-03-29T00:33:31.474Z,2.10
2023-03-29T00:38:33.491Z,2.00
2023-03-29T00:43:52.173Z,1.75
2023-03-29T00:48:57.771Z,2.40
2023-03-29T00:54:03.248Z,1.90
2023-03-29T00:59:09.888Z,2.35
2023-03-29T01:04:22.592Z,2.47
2023-03-29T01:09:26.995Z,2.00
2023-03-29T01:14:39.290Z,2.22
2023-03-29T01:19:46.713Z,2.10
2023-03-29T01:24:55.009Z,2.50
2023-03-29T01:30:02.061Z,2.30
2023-03-29T01:35:32.479Z,2.10
2023-03-29T01:40:34.656Z,2.60
2023-03-29T01:45:51.064Z,3.53
2023-03-29T01:50:58.353Z,3.33
2023-03-29T01:56:07.633Z,3.70
2023-03-29T02:01:11.477Z,3.60
2023-03-29T02:06:18.563Z,2.93
2023-03-29T02:11:23.229Z,2.00
2023-03-29T02:21:41.652Z,2.10
2023-03-29T02:26:44.613Z,2.22
2023-03-29T02:31:55.249Z,2.20
2023-03-29T02:37:06.770Z,2.30
2023-03-29T02:42:09.885Z,2.10
2023-03-29T02:47:24.854Z,2.95
2023-03-29T02:52:34.118Z,2.80
2023-03-29T02:57:38.286Z,3.08
2023-03-29T03:02:40.517Z,2.70
2023-03-29T03:07:44.210Z,2.78
2023-03-29T03:12:46.074Z,2.30
2023-03-29T03:17:49.311Z,1.90
2023-03-29T03:22:51.707Z,2.10
2023-03-29T03:27:54.417Z,1.92
2023-03-29T03:32:58.709Z,2.10
2023-03-29T03:38:19.198Z,2.00
2023-03-29T03:43:29.225Z,1.98
2023-03-29T03:48:32.381Z,2.10
2023-03-29T03:53:41.625Z,1.85
2023-03-29T03:58:49.200Z,2.00
2023-03-29T04:03:53.876Z,1.92
2023-03-29T04:08:56.757Z,1.80
2023-03-29T04:14:12.039Z,2.05
2023-03-29T04:19:34.112Z,1.88
2023-03-29T04:24:36.567Z,2.20
2023-03-29T04:30:11.462Z,2.20
2023-03-29T04:35:36.526Z,1.88
2023-03-29T04:40:38.533Z,2.08
2023-03-29T04:46:00.754Z,2.38
2023-03-29T04:51:24.480Z,2.28
2023-03-29T04:56:28.349Z,2.08
2023-03-29T05:02:08.709Z,1.83
2023-03-29T05:07:15.350Z,2.17
2023-03-29T05:12:17.290Z,1.90
2023-03-29T05:17:29.830Z,2.10
2023-03-29T05:22:38.304Z,2.00
2023-03-29T05:27:43.204Z,1.70
2023-03-29T05:32:46.816Z,1.80
2023-03-29T05:37:51.618Z,1.50
2023-03-29T05:42:53.718Z,1.73
2023-03-29T05:47:57.500Z,2.10
2023-03-29T05:52:59.466Z,2.10
2023-03-29T05:58:01.361Z,1.88
2023-03-29T06:03:14.022Z,1.83
2023-03-29T06:08:20.706Z,1.90
2023-03-29T06:13:42.172Z,2.00
2023-03-29T06:18:44.825Z,1.92
2023-03-29T06:23:47.364Z,2.15
2023-03-29T06:28:52.259Z,2.38
2023-03-29T06:33:54.868Z,2.17
2023-03-29T06:39:08.520Z,1.90
2023-03-29T06:44:28.990Z,1.90
2023-03-29T06:49:39.514Z,1.95
2023-03-29T06:54:55.350Z,1.83
2023-03-29T07:00:00.156Z,1.85
2023-03-29T07:05:21.935Z,1.90
2023-03-29T07:10:32.402Z,2.28
2023-03-29T07:16:00.356Z,2.70
2023-03-29T07:21:22.621Z,2.42
2023-03-29T07:26:28.963Z,2.15
2023-03-29T07:31:35.041Z,2.30
2023-03-29T07:37:07.129Z,2.20
2023-03-29T07:42:09.168Z,2.35
2023-03-29T07:47:11.092Z,2.20
2023-03-29T07:52:13.763Z,2.28
2023-03-29T07:57:16.033Z,2.10
2023-03-29T08:02:24.034Z,2.90
2023-03-29T08:07:29.033Z,2.30
2023-03-29T08:12:52.418Z,2.42
2023-03-29T08:17:58.364Z,2.33
2023-03-29T08:23:01.153Z,2.33
2023-03-29T08:28:22.335Z,2.50
2023-03-29T08:33:26.556Z,2.50
2023-03-29T08:38:48.243Z,2.10
2023-03-29T08:44:12.158Z,2.28
2023-03-29T08:49:27.023Z,2.60
2023-03-29T08:54:36.998Z,1.67
2023-03-29T09:00:02.293Z,2.75
2023-03-29T09:05:24.268Z,2.50
2023-03-29T09:11:04.831Z,2.60
2023-03-29T09:16:37.083Z,2.70
2023-03-29T09:21:46.511Z,3.10
2023-03-29T09:26:59.077Z,2.90
2023-03-29T09:32:11.694Z,2.65
2023-03-29T09:37:33.173Z,2.58
2023-03-29T09:42:37.950Z,1.95
2023-03-29T09:47:41.582Z,2.40
2023-03-29T09:52:47.794Z,2.15
2023-03-29T09:57:56.000Z,1.98
2023-03-29T10:03:00.539Z,1.83
2023-03-29T10:08:27.768Z,1.92
2023-03-29T10:13:35.400Z,1.52
2023-03-29T10:18:41.925Z,1.85
2023-03-29T10:23:44.222Z,1.52
2023-03-29T10:28:46.125Z,1.80
2023-03-29T10:34:06.809Z,1.90
2023-03-29T10:39:13.178Z,1.80
2023-03-29T10:44:27.664Z,1.70
2023-03-29T10:49:29.387Z,1.88
2023-03-29T10:54:31.426Z,2.03
2023-03-29T10:59:46.203Z,1.92
2023-03-29T11:04:58.523Z,1.85
2023-03-29T11:10:06.437Z,2.38
2023-03-29T11:15:11.299Z,2.15
2023-03-29T11:20:34.635Z,1.90
2023-03-29T11:26:04.501Z,2.35
2023-03-29T11:31:52.768Z,2.28
2023-03-29T11:37:16.322Z,2.15
2023-03-29T11:42:26.710Z,1.80
2023-03-29T11:47:32.814Z,1.98
2023-03-29T11:52:40.793Z,2.08
2023-03-29T11:57:58.792Z,2.10
2023-03-29T12:03:15.265Z,2.25
2023-03-29T12:08:24.194Z,1.90
2023-03-29T12:13:36.673Z,2.22
2023-03-29T12:18:45.787Z,2.10
2023-03-29T12:23:48.601Z,2.40
2023-03-29T12:29:05.378Z,3.90
2023-03-29T12:34:32.278Z,1.90
2023-03-29T12:39:36.025Z,2.22
2023-03-29T12:45:00.522Z,1.90
2023-03-29T12:50:17.300Z,1.55
2023-03-29T12:55:42.402Z,1.70
2023-03-29T13:00:45.158Z,1.60
2023-03-29T13:05:48.174Z,1.42
2023-03-29T13:10:56.556Z,1.42
2023-03-29T13:16:19.816Z,1.70
2023-03-29T13:21:44.887Z,1.63
2023-03-29T13:27:00.634Z,1.48
2023-03-29T13:32:16.042Z,2.03
2023-03-29T13:37:43.203Z,1.60
2023-03-29T13:43:00.870Z,1.67
2023-03-29T13:48:33.633Z,1.63
2023-03-29T13:53:40.838Z,1.80
2023-03-29T13:58:53.268Z,1.55
2023-03-29T14:03:56.619Z,1.75
2023-03-29T14:09:04.903Z,1.70
2023-03-29T14:14:08.359Z,1.77
2023-03-29T14:19:17.406Z,1.58
2023-03-29T14:24:26.983Z,1.23
2023-03-29T14:29:35.616Z,1.40
2023-03-29T14:34:38.173Z,1.55
2023-03-29T14:39:41.035Z,1.73
2023-03-29T14:44:44.410Z,1.70
2023-03-29T14:49:46.894Z,1.73
2023-03-29T14:54:53.134Z,1.80
2023-03-29T15:00:00.337Z,1.80
2023-03-29T15:05:07.623Z,1.73
2023-03-29T15:10:18.626Z,1.35
2023-03-29T15:15:22.862Z,1.55
2023-03-29T15:25:37.049Z,1.35
2023-03-29T15:30:46.250Z,1.48
2023-03-29T15:35:53.646Z,1.70
2023-03-29T15:45:57.945Z,1.83
2023-03-29T15:51:03.811Z,2.22
2023-03-29T15:56:11.534Z,1.70
2023-03-29T16:01:38.690Z,1.85
2023-03-29T16:06:41.258Z,1.85
2023-03-29T16:11:44.534Z,2.25
2023-03-29T16:16:46.762Z,2.33
2023-03-29T16:21:49.162Z,2.33
2023-03-29T16:26:55.681Z,2.58
2023-03-29T16:31:57.799Z,2.25
2023-03-29T16:36:59.600Z,2.33
2023-03-29T16:42:01.453Z,2.50
2023-03-29T16:47:03.224Z,2.47
2023-03-29T16:52:05.434Z,2.42
2023-03-29T16:57:07.712Z,2.45
2023-03-29T17:02:10.431Z,1.92
2023-03-29T17:07:12.243Z,1.55
2023-03-29T17:12:14.020Z,1.90
2023-03-29T17:17:16.193Z,1.85
2023-03-29T17:22:18.750Z,1.65
2023-03-29T17:27:21.020Z,1.95
2023-03-29T17:32:22.713Z,1.67
2023-03-29T17:37:24.531Z,1.88
2023-03-29T17:42:26.630Z,1.65
2023-03-29T17:47:28.379Z,2.28
2023-03-29T17:52:30.092Z,1.70
2023-03-29T17:57:31.787Z,2.20
2023-03-29T18:02:33.713Z,2.20
2023-03-29T18:07:35.801Z,2.58
2023-03-29T18:12:37.655Z,2.88
2023-03-29T18:17:39.390Z,2.80
2023-03-29T18:22:42.210Z,3.00
2023-03-29T18:27:44.093Z,3.03
2023-03-29T18:32:45.870Z,3.83
2023-03-29T18:37:47.616Z,3.30
2023-03-29T18:42:49.280Z,2.72
2023-03-29T18:47:52.307Z,2.80
2023-03-29T18:52:54.106Z,2.90
2023-03-29T18:57:56.200Z,2.78
2023-03-29T19:02:58.099Z,2.75
2023-03-29T19:08:00.967Z,2.55
2023-03-29T19:13:02.771Z,2.13
2023-03-29T19:18:04.764Z,2.65
2023-03-29T19:23:06.653Z,2.50
2023-03-29T19:28:08.650Z,2.47
2023-03-29T19:33:10.542Z,2.25
2023-03-29T19:38:12.679Z,2.38
2023-03-29T19:43:18.890Z,2.45
2023-03-29T19:48:23.328Z,2.55
2023-03-29T19:53:27.020Z,2.45
2023-03-29T19:58:28.707Z,1.67
2023-03-29T20:03:34.037Z,1.90
2023-03-29T20:08:38.688Z,2.00
2023-03-29T20:13:44.934Z,1.77
2023-03-29T20:18:46.760Z,1.88
2023-03-29T20:23:48.542Z,1.60
2023-03-29T20:28:50.252Z,1.60
2023-03-29T20:33:51.949Z,1.80
2023-03-29T20:38:56.101Z,1.67
2023-03-29T20:43:58.468Z,1.80
2023-03-29T20:49:08.877Z,1.20
2023-03-29T20:54:11.498Z,1.08
2023-03-29T20:59:13.265Z,1.65
2023-03-29T21:04:14.962Z,1.45
2023-03-29T21:09:19.178Z,1.52
2023-03-29T21:14:21.200Z,1.50
2023-03-29T21:19:24.148Z,2.13
2023-03-29T21:24:25.898Z,1.30
2023-03-29T21:29:28.000Z,1.20
2023-03-29T21:34:29.764Z,1.52
2023-03-29T21:39:31.476Z,1.35
2023-03-29T21:44:34.438Z,1.25
2023-03-29T21:49:36.357Z,1.10
2023-03-29T21:54:38.180Z,1.30
2023-03-29T21:59:39.864Z,1.20
2023-03-29T22:04:41.666Z,1.20
2023-03-29T22:09:43.594Z,1.25
2023-03-29T22:14:45.315Z,1.17
2023-03-29T22:19:47.473Z,1.10
2023-03-29T22:24:53.035Z,1.20
2023-03-29T22:29:54.708Z,1.00
2023-03-29T22:34:56.442Z,1.00
2023-03-29T22:39:58.141Z,1.20
2023-03-29T22:44:59.820Z,1.42
2023-03-29T22:50:01.652Z,0.80
2023-03-29T22:55:03.545Z,1.23
2023-03-29T23:00:08.941Z,1.02
2023-03-29T23:05:11.088Z,1.10
2023-03-29T23:10:13.082Z,2.00
2023-03-29T23:15:16.983Z,1.45
2023-03-29T23:20:20.946Z,1.10
2023-03-29T23:25:22.648Z,1.20
2023-03-29T23:30:24.776Z,1.20
2023-03-29T23:35:26.600Z,1.40
2023-03-29T23:40:28.335Z,1.45
2023-03-29T23:45:30.211Z,1.77
2023-03-29T23:50:31.910Z,1.60
2023-03-29T23:55:33.594Z,1.60
